Agency, Missouri
Current Conditions -  °F | °C
As of 5:53 PM on Thursday 27 Nov 2014 (Local Time) from KSTJ Reporting Station
Clear Clear  
Wind Chill: -4°   Ceiling: Unl
Heat Index: -1°   Visibility: 10mi
Dew Point: -7°   Wind: 6mph
Humidity: 66%   Direction: 120°ESE
Pressure: 30.37"   Gusts: NA
Location:  39.64°N, 94.74°W
Report Text: KSTJ 272353Z AUTO 12005KT 10SM CLR M01/M07 A3037 RMK AO2 SLP292 T10111067 10000 21033 56020
Loading
Personal Weather Stations






























Interactive Weather Map New forecast layout! Learn more

10-Day Weather Forecast

Advertisements
Track Severe Weather on mobile